Terminal Aerodrome Forecast
Issued by NWS

Home | Current Version | Previous Version | Text Only | Print | Product List | Glossary On
Versions: 1 2 3 4 5 6 7 8 9 10 11 12 13 14 15 16
000
FTUS45 KTFX 251700
TAFGTF
TAF
KGTF 251721Z 2518/2618 22018G24KT P6SM BKN120
     FM252000 24022G32KT P6SM SCT150
     FM260100 22017KT P6SM BKN200=

USA.gov is the U.S. government's official web portal to all federal, state and local government web resources and services.